Time;durP1;ratioP1;P1;durP2;ratioP2;P2;SDS_P1;SDS_P2;PMS_P1;PMS_P2;Temp;Humidity;BMP_temperature;BMP_pressure;BME280_temperature;BME280_humidity;BME280_pressure;Samples;Min_cycle;Max_cycle;Signal;HPM_P1;HPM_P2
2023/09/25 00:00:54;;;;;;;3.93;1.73;;;;;;;15.26;100.00;102035.50;5234189;28;20040;-68
2023/09/25 00:03:25;;;;;;;3.00;1.40;;;;;;;15.18;100.00;102039.47;5233492;28;20026;-68
2023/09/25 00:05:56;;;;;;;4.87;1.93;;;;;;;15.12;100.00;102040.69;5234395;28;20033;-68
2023/09/25 00:08:28;;;;;;;5.70;2.10;;;;;;;15.11;100.00;102038.16;5235027;28;20033;-68
2023/09/25 00:10:59;;;;;;;3.13;1.97;;;;;;;15.23;100.00;102037.41;5233745;28;20029;-68
2023/09/25 00:13:31;;;;;;;3.57;1.37;;;;;;;15.35;100.00;102045.50;5234654;28;20519;-68
2023/09/25 00:16:02;;;;;;;2.67;1.43;;;;;;;15.33;100.00;102044.75;5233295;28;20102;-68
2023/09/25 00:18:34;;;;;;;3.53;1.60;;;;;;;15.17;100.00;102034.31;5233061;28;20563;-68
2023/09/25 00:21:06;;;;;;;5.03;1.70;;;;;;;15.16;100.00;102036.09;5234339;28;20029;-68
2023/09/25 00:23:38;;;;;;;3.90;1.53;;;;;;;15.17;100.00;102040.41;5234280;28;20055;-68
2023/09/25 00:26:09;;;;;;;4.60;1.57;;;;;;;14.98;100.00;102046.78;5219930;28;20033;-68
2023/09/25 00:28:41;;;;;;;5.27;1.80;;;;;;;15.07;100.00;102047.19;5234456;28;20084;-68
2023/09/25 00:31:13;;;;;;;2.87;1.63;;;;;;;15.09;100.00;102042.66;5232530;28;20468;-68
2023/09/25 00:33:44;;;;;;;5.30;2.00;;;;;;;15.20;100.00;102048.13;5230567;28;20037;-68
2023/09/25 00:36:15;;;;;;;4.33;1.60;;;;;;;15.08;100.00;102040.97;5233615;28;20026;-68
2023/09/25 00:38:47;;;;;;;2.90;1.90;;;;;;;14.80;100.00;102047.84;5219657;28;20044;-68
2023/09/25 00:41:18;;;;;;;4.43;2.00;;;;;;;14.78;100.00;102042.69;5232792;28;20156;-69
2023/09/25 00:43:49;;;;;;;4.63;1.83;;;;;;;14.84;100.00;102044.97;5233586;28;20041;-68
2023/09/25 00:46:20;;;;;;;5.57;2.40;;;;;;;14.92;100.00;102047.16;5232576;28;20059;-69
2023/09/25 00:48:52;;;;;;;2.57;1.33;;;;;;;14.93;100.00;102048.84;5231852;28;21062;-68
2023/09/25 00:51:23;;;;;;;4.53;1.97;;;;;;;14.79;100.00;102048.78;5221390;28;20080;-68
2023/09/25 00:53:56;;;;;;;4.87;1.80;;;;;;;14.66;100.00;102049.50;5231847;28;20092;-68
2023/09/25 00:56:27;;;;;;;4.77;1.63;;;;;;;14.67;100.00;102048.56;5231630;28;20030;-68
2023/09/25 00:58:58;;;;;;;2.80;1.50;;;;;;;14.67;100.00;102039.81;5232860;28;20267;-68
2023/09/25 01:01:30;;;;;;;5.73;2.50;;;;;;;14.64;100.00;102046.13;5232545;28;20025;-68
2023/09/25 01:04:07;;;;;;;4.13;1.97;;;;;;;14.59;100.00;102024.44;5218864;22;20122;-79
2023/09/25 01:06:39;;;;;;;4.73;1.97;;;;;;;14.84;100.00;102030.94;5198983;28;20026;-81
2023/09/25 01:09:13;;;;;;;2.37;1.77;;;;;;;14.49;100.00;102006.53;5193592;28;20108;-81
2023/09/25 01:11:44;;;;;;;3.42;2.03;;;;;;;14.43;100.00;101980.53;5197618;28;20469;-81
2023/09/25 01:14:16;;;;;;;5.07;1.77;;;;;;;14.60;100.00;102023.50;5199798;28;20062;-79
2023/09/25 01:17:08;;;;;;;3.23;1.60;;;;;;;14.78;100.00;102026.00;5196034;28;20030;-80
2023/09/25 01:19:43;;;;;;;2.77;1.80;;;;;;;14.74;100.00;102055.19;5210728;28;20035;-79
2023/09/25 01:22:14;;;;;;;4.47;2.07;;;;;;;14.59;100.00;102054.28;5211337;28;20026;-79
2023/09/25 01:24:46;;;;;;;5.67;1.90;;;;;;;14.38;100.00;102008.94;5211169;28;20518;-80
2023/09/25 01:27:20;;;;;;;2.87;1.80;;;;;;;14.39;100.00;102029.06;5209190;28;20076;-79
2023/09/25 01:29:54;;;;;;;3.73;2.07;;;;;;;14.28;100.00;102030.53;5214820;28;20124;-79
2023/09/25 01:32:28;;;;;;;3.80;2.20;;;;;;;14.21;100.00;102000.19;5228711;28;20086;-76
2023/09/25 01:34:59;;;;;;;4.65;1.90;;;;;;;14.23;100.00;102002.75;5198345;28;20033;-79
2023/09/25 01:37:31;;;;;;;4.20;1.70;;;;;;;14.22;100.00;102007.19;5195723;28;20378;-80
2023/09/25 01:40:05;;;;;;;3.53;2.00;;;;;;;14.39;100.00;102029.94;5195057;28;20034;-79
2023/09/25 01:42:36;;;;;;;4.50;2.25;;;;;;;14.21;100.00;102002.84;5196245;28;20113;-81
2023/09/25 01:45:12;;;;;;;5.40;2.10;;;;;;;14.48;100.00;102025.91;5197831;28;20164;-78
2023/09/25 01:47:49;;;;;;;4.03;2.07;;;;;;;14.28;100.00;101992.78;5214913;28;20022;-80
2023/09/25 01:50:29;;;;;;;4.57;2.00;;;;;;;14.36;100.00;102037.16;5207892;28;20024;-79
2023/09/25 01:53:03;;;;;;;3.83;2.63;;;;;;;14.14;100.00;101980.41;5219764;28;20029;-79
2023/09/25 01:55:39;;;;;;;5.20;1.85;;;;;;;14.10;100.00;102021.03;5210210;28;20753;-78
2023/09/25 01:58:10;;;;;;;5.33;2.40;;;;;;;14.37;100.00;102039.72;5200898;28;20437;-79
2023/09/25 02:00:42;;;;;;;3.83;2.00;;;;;;;14.05;100.00;102002.00;5186089;28;20033;-78
2023/09/25 02:03:14;;;;;;;4.00;2.17;;;;;;;14.08;100.00;102012.38;5186894;28;20495;-80
2023/09/25 02:05:45;;;;;;;5.10;2.00;;;;;;;13.98;100.00;101991.81;5193678;28;20037;-80
2023/09/25 02:08:19;;;;;;;4.67;2.23;;;;;;;13.77;100.00;101972.81;5192755;28;20029;-80
2023/09/25 02:10:50;;;;;;;3.97;2.00;;;;;;;13.77;100.00;101973.63;5187582;28;20089;-80
2023/09/25 02:13:22;;;;;;;5.93;2.47;;;;;;;13.92;100.00;101992.16;5184683;28;20034;-80
2023/09/25 02:15:54;;;;;;;3.43;1.93;;;;;;;13.90;100.00;101994.88;5190143;28;20027;-79
2023/09/25 02:18:26;;;;;;;5.90;2.33;;;;;;;14.11;100.00;102028.00;5192850;28;20032;-81
2023/09/25 02:20:57;;;;;;;5.27;2.23;;;;;;;13.86;100.00;102003.88;5193370;28;20409;-82
2023/09/25 02:23:31;;;;;;;6.23;2.73;;;;;;;13.79;100.00;101982.31;5195937;28;20393;-80
2023/09/25 02:26:05;;;;;;;2.33;1.63;;;;;;;14.04;100.00;101995.88;5193484;28;20113;-81
2023/09/25 02:28:37;;;;;;;3.78;2.25;;;;;;;13.83;100.00;101982.13;5194291;28;20033;-80
2023/09/25 02:31:10;;;;;;;5.57;2.10;;;;;;;13.70;100.00;101972.28;5196022;28;20030;-81
2023/09/25 02:33:44;;;;;;;3.53;2.17;;;;;;;13.82;100.00;101985.72;5190047;28;20045;-80
2023/09/25 02:36:16;;;;;;;4.07;2.45;;;;;;;13.69;100.00;101981.13;5192356;28;20087;-80
2023/09/25 02:38:50;;;;;;;5.03;2.17;;;;;;;13.73;100.00;102009.00;5194934;28;20026;-81
2023/09/25 02:41:22;;;;;;;;;;;;;;;14.35;100.00;102024.91;5195624;28;20370;-81
2023/09/25 02:43:53;;;;;;;2.60;1.83;;;;;;;13.84;100.00;101989.13;5191973;28;19961;-80
2023/09/25 02:46:24;;;;;;;6.30;2.80;;;;;;;13.81;100.00;102010.34;5192793;28;20037;-81
2023/09/25 02:48:56;;;;;;;4.73;2.33;;;;;;;13.51;100.00;101970.63;5194248;28;20027;-79
2023/09/25 02:51:27;;;;;;;6.37;3.13;;;;;;;13.87;100.00;102015.28;5190368;28;20031;-79
2023/09/25 02:54:02;;;;;;;4.57;2.27;;;;;;;13.77;100.00;102010.50;5195174;28;20057;-79
2023/09/25 02:56:34;;;;;;;4.87;2.30;;;;;;;13.37;100.00;101965.28;5193276;28;20065;-80
2023/09/25 02:59:07;;;;;;;5.87;2.20;;;;;;;13.72;100.00;102001.19;5184715;28;20659;-80
2023/09/25 03:01:39;;;;;;;5.28;2.60;;;;;;;13.59;100.00;101969.41;5185812;28;20038;-80
2023/09/25 03:04:11;;;;;;;5.20;2.17;;;;;;;13.65;100.00;102006.75;5185949;28;20038;-79
2023/09/25 03:06:43;;;;;;;5.03;2.03;;;;;;;13.69;100.00;102003.94;5207734;28;20113;-80
2023/09/25 03:09:16;;;;;;;3.47;1.97;;;;;;;13.52;100.00;101985.53;5195590;28;20386;-80
2023/09/25 03:11:50;;;;;;;2.93;1.90;;;;;;;13.39;100.00;101966.88;5194671;28;20062;-80
2023/09/25 03:14:21;;;;;;;6.22;2.17;;;;;;;13.54;100.00;101993.34;5194032;28;20121;-79
2023/09/25 03:16:53;;;;;;;6.00;2.40;;;;;;;13.78;100.00;102028.00;5189652;28;20722;-80
2023/09/25 03:19:24;;;;;;;3.53;1.83;;;;;;;13.60;100.00;101981.59;5187902;28;21484;-79
2023/09/25 03:21:56;;;;;;;4.57;2.33;;;;;;;13.77;100.00;102001.78;5188285;28;20031;-79
2023/09/25 03:24:27;;;;;;;4.23;2.23;;;;;;;13.90;100.00;102015.09;5193509;28;20105;-79
2023/09/25 03:26:59;;;;;;;4.20;2.63;;;;;;;13.68;100.00;101997.84;5185872;28;20053;-78
2023/09/25 03:29:30;;;;;;;6.03;2.10;;;;;;;13.85;100.00;102019.75;5193541;28;20064;-78
2023/09/25 03:32:02;;;;;;;3.73;2.03;;;;;;;13.86;100.00;102026.75;5193835;28;20502;-78
2023/09/25 03:34:33;;;;;;;4.53;2.40;;;;;;;13.73;100.00;102002.88;5192320;28;20113;-79
2023/09/25 03:37:07;;;;;;;6.37;2.77;;;;;;;13.95;100.00;102018.31;5189314;28;20031;-78
2023/09/25 03:39:39;;;;;;;3.80;2.17;;;;;;;13.79;100.00;102000.75;5192227;28;20031;-79
2023/09/25 03:42:10;;;;;;;3.50;1.97;;;;;;;13.67;100.00;101980.34;5193495;28;20117;-79
2023/09/25 03:44:42;;;;;;;5.10;2.20;;;;;;;13.53;100.00;101968.78;5193779;28;20034;-79
2023/09/25 03:47:13;;;;;;;5.20;2.30;;;;;;;13.67;100.00;102014.56;5193077;28;20022;-78
2023/09/25 03:49:45;;;;;;;8.67;2.67;;;;;;;13.62;100.00;101993.78;5193185;28;20089;-78
2023/09/25 03:52:16;;;;;;;3.87;1.80;;;;;;;13.61;100.00;101999.97;5193485;28;20093;-79
2023/09/25 03:54:47;;;;;;;6.20;2.13;;;;;;;13.58;100.00;101992.22;5192859;28;20362;-77
2023/09/25 03:57:18;;;;;;;6.20;2.40;;;;;;;13.47;100.00;102005.97;5189462;28;20030;-78
2023/09/25 03:59:51;;;;;;;4.27;1.83;;;;;;;13.66;100.00;102023.41;5188402;28;20482;-78
2023/09/25 04:02:22;;;;;;;4.43;2.40;;;;;;;13.41;100.00;102003.63;5192421;28;20026;-78
2023/09/25 04:04:53;;;;;;;4.97;2.10;;;;;;;13.64;100.00;102014.75;5191432;28;20030;-78
2023/09/25 04:07:25;;;;;;;5.77;2.53;;;;;;;13.50;100.00;102005.78;5193266;28;20556;-79
2023/09/25 04:09:56;;;;;;;3.20;1.90;;;;;;;13.52;100.00;102011.00;5192635;28;20066;-78
2023/09/25 04:12:29;;;;;;;5.00;2.20;;;;;;;13.37;100.00;102008.22;5192580;28;20038;-78
2023/09/25 04:15:02;;;;;;;6.20;2.33;;;;;;;13.45;100.00;102006.97;5191423;28;20080;-80
2023/09/25 04:17:33;;;;;;;4.17;2.00;;;;;;;13.41;100.00;102016.78;5192817;28;20093;-80
2023/09/25 04:20:08;;;;;;;4.07;2.20;;;;;;;13.39;100.00;102010.75;5192432;28;20505;-77
2023/09/25 04:22:40;;;;;;;6.17;2.57;;;;;;;13.31;100.00;102008.53;5190937;28;20054;-77
2023/09/25 04:25:21;;;;;;;5.03;2.43;;;;;;;13.46;100.00;102001.59;5174736;28;20049;-79
2023/09/25 04:27:54;;;;;;;4.00;2.57;;;;;;;13.60;100.00;102034.25;5192173;28;20026;-78
2023/09/25 04:30:25;;;;;;;5.40;2.37;;;;;;;13.51;100.00;102025.06;5192980;28;20359;-79
2023/09/25 04:32:57;;;;;;;6.00;2.30;;;;;;;13.53;100.00;102023.22;5191752;28;20033;-78
2023/09/25 04:35:28;;;;;;;4.23;2.40;;;;;;;13.34;100.00;102007.53;5192264;28;20082;-79
2023/09/25 04:38:00;;;;;;;4.13;2.00;;;;;;;13.61;100.00;102035.97;5192389;28;20029;-79
2023/09/25 04:40:31;;;;;;;5.30;2.33;;;;;;;13.55;100.00;102043.25;5188744;28;20482;-78
2023/09/25 04:43:03;;;;;;;5.47;2.60;;;;;;;13.51;100.00;102046.13;5189304;28;20029;-78
2023/09/25 04:45:34;;;;;;;6.57;3.50;;;;;;;13.27;100.00;102022.78;5191457;28;20034;-78
2023/09/25 04:48:06;;;;;;;5.33;2.63;;;;;;;13.33;100.00;102016.34;5192527;28;20397;-78
2023/09/25 04:50:37;;;;;;;6.57;2.77;;;;;;;13.41;100.00;102036.06;5192291;28;20583;-78
2023/09/25 04:53:09;;;;;;;4.73;2.87;;;;;;;13.33;100.00;102034.78;5191914;28;20056;-78
2023/09/25 04:55:41;;;;;;;6.20;2.30;;;;;;;13.47;100.00;102036.69;5190153;28;20029;-78
2023/09/25 04:58:12;;;;;;;4.60;2.57;;;;;;;13.31;100.00;102019.06;5185419;28;20026;-77
2023/09/25 05:00:44;;;;;;;4.40;2.80;;;;;;;13.37;100.00;102038.94;5184435;28;20030;-78
2023/09/25 05:03:15;;;;;;;6.30;2.80;;;;;;;13.38;100.00;102040.63;5189431;28;20044;-78
2023/09/25 05:05:47;;;;;;;7.20;2.60;;;;;;;13.46;100.00;102048.97;5190748;28;20036;-78
2023/09/25 05:08:18;;;;;;;6.60;3.10;;;;;;;13.22;100.00;102024.81;5190484;28;20031;-78
2023/09/25 05:10:50;;;;;;;7.20;2.63;;;;;;;13.35;100.00;102030.28;5191078;28;20030;-78
2023/09/25 05:13:21;;;;;;;3.00;2.10;;;;;;;13.28;100.00;102019.25;5191565;28;20096;-79
2023/09/25 05:15:52;;;;;;;5.63;2.47;;;;;;;13.37;100.00;102038.94;5190844;28;20030;-80
2023/09/25 05:18:24;;;;;;;4.77;2.70;;;;;;;13.48;100.00;102051.53;5191051;28;20026;-79
2023/09/25 05:20:57;;;;;;;7.67;2.97;;;;;;;13.18;100.00;102024.09;5190659;28;20038;-79
2023/09/25 05:23:28;;;;;;;6.37;2.67;;;;;;;13.39;100.00;102055.47;5189433;28;20038;-79
2023/09/25 05:26:00;;;;;;;4.70;2.37;;;;;;;13.39;100.00;102047.59;5191213;28;20029;-78
2023/09/25 05:28:31;;;;;;;4.43;2.27;;;;;;;13.33;100.00;102056.69;5187269;28;20109;-78
2023/09/25 05:31:03;;;;;;;5.90;2.93;;;;;;;13.27;100.00;102054.34;5183785;28;20022;-78
2023/09/25 05:33:34;;;;;;;5.13;2.23;;;;;;;13.22;100.00;102049.34;5191457;28;20037;-79
2023/09/25 05:36:06;;;;;;;5.43;2.47;;;;;;;13.20;100.00;102040.66;5191671;28;20102;-79
2023/09/25 05:38:37;;;;;;;8.10;2.23;;;;;;;13.15;100.00;102045.31;5191267;28;20053;-78
2023/09/25 05:41:08;;;;;;;7.17;2.17;;;;;;;13.19;100.00;102028.47;5190466;28;20113;-79
2023/09/25 05:43:40;;;;;;;7.63;2.13;;;;;;;13.29;100.00;102042.84;5191853;28;20541;-79
2023/09/25 05:46:11;;;;;;;4.73;3.07;;;;;;;13.41;100.00;102066.78;5190545;28;20057;-79
2023/09/25 05:48:43;;;;;;;5.43;2.53;;;;;;;13.36;100.00;102058.28;5191062;28;20027;-79
2023/09/25 05:51:14;;;;;;;5.73;2.80;;;;;;;13.38;100.00;102066.97;5190658;28;20037;-79
2023/09/25 05:53:47;;;;;;;5.10;2.40;;;;;;;13.19;100.00;102037.19;5192290;28;20117;-79
2023/09/25 05:56:19;;;;;;;13.10;3.60;;;;;;;13.25;100.00;102030.75;5193506;28;20034;-80
2023/09/25 05:58:52;;;;;;;5.63;2.47;;;;;;;13.18;100.00;102024.97;5195514;28;20344;-80
2023/09/25 06:01:24;;;;;;;5.55;2.63;;;;;;;13.40;100.00;102054.56;5188031;28;20100;-80
2023/09/25 06:03:57;;;;;;;3.83;2.37;;;;;;;13.30;100.00;102044.53;5195232;28;20042;-80
2023/09/25 06:06:28;;;;;;;6.33;2.87;;;;;;;13.22;100.00;102027.44;5194670;28;20031;-79
2023/09/25 06:09:00;;;;;;;7.23;2.63;;;;;;;13.52;100.00;102076.78;5185794;28;20794;-79
2023/09/25 06:11:31;;;;;;;4.67;2.30;;;;;;;13.47;100.00;102066.47;5194542;28;20038;-77
2023/09/25 06:14:03;;;;;;;6.00;2.37;;;;;;;13.41;100.00;102046.59;5193461;28;20031;-77
2023/09/25 06:16:36;;;;;;;5.43;2.30;;;;;;;13.33;100.00;102032.13;5193607;28;20022;-78
2023/09/25 06:19:08;;;;;;;5.03;2.70;;;;;;;13.61;100.00;102072.81;5194061;28;20022;-77
2023/09/25 06:21:39;;;;;;;5.13;2.40;;;;;;;13.54;100.00;102067.03;5194947;28;20027;-78
2023/09/25 06:24:12;;;;;;;5.63;2.80;;;;;;;13.54;100.00;102045.97;5193692;28;20029;-78
2023/09/25 06:26:46;;;;;;;5.63;2.50;;;;;;;13.51;100.00;102057.47;5194485;28;20022;-78
2023/09/25 06:29:18;;;;;;;5.03;2.50;;;;;;;13.47;100.00;102037.53;5195443;28;20053;-78
2023/09/25 06:31:49;;;;;;;4.27;2.70;;;;;;;13.76;100.00;102074.63;5187022;28;20608;-77
2023/09/25 06:34:20;;;;;;;7.00;2.73;;;;;;;13.82;100.00;102065.56;5192821;28;20034;-77
2023/09/25 06:36:52;;;;;;;5.57;2.27;;;;;;;13.74;100.00;102051.94;5194714;28;20038;-77
2023/09/25 06:39:23;;;;;;;4.07;2.73;;;;;;;13.76;100.00;102056.19;5195210;28;20021;-79
2023/09/25 06:41:55;;;;;;;5.50;2.30;;;;;;;13.86;100.00;102074.97;5198710;28;20326;-79
2023/09/25 06:44:26;;;;;;;5.53;2.20;;;;;;;13.86;100.00;102085.50;5201409;28;20030;-79
2023/09/25 06:46:57;;;;;;;6.03;2.73;;;;;;;14.02;100.00;102075.00;5197678;28;20030;-79
2023/09/25 06:49:30;;;;;;;7.37;2.63;;;;;;;14.05;100.00;102075.78;5187004;28;20088;-79
2023/09/25 06:52:01;;;;;;;4.13;2.20;;;;;;;13.97;100.00;102057.72;5186059;28;20034;-79
2023/09/25 06:54:32;;;;;;;5.83;2.40;;;;;;;14.02;100.00;102055.69;5191904;28;20541;-78
2023/09/25 06:57:04;;;;;;;8.57;3.03;;;;;;;14.09;100.00;102066.75;5174085;28;20052;-78
2023/09/25 06:59:35;;;;;;;3.63;2.47;;;;;;;14.21;100.00;102081.88;5190559;28;20026;-79
2023/09/25 07:02:16;;;;;;;4.50;2.10;;;;;;;14.31;100.00;102082.22;5190137;28;20558;-79
2023/09/25 07:04:47;;;;;;;5.80;2.50;;;;;;;14.42;100.00;102076.34;5186722;28;20512;-79
2023/09/25 07:07:19;;;;;;;9.43;2.77;;;;;;;14.47;100.00;102076.91;5191329;28;20026;-79
2023/09/25 07:09:50;;;;;;;4.43;2.30;;;;;;;14.40;100.00;102059.75;5191524;28;20029;-79
2023/09/25 07:12:22;;;;;;;6.07;2.50;;;;;;;14.61;100.00;102072.63;5192812;28;20041;-79
2023/09/25 07:14:56;;;;;;;3.00;1.90;;;;;;;14.66;100.00;102059.22;5192729;28;20032;-78
2023/09/25 07:17:28;;;;;;;4.40;2.25;;;;;;;14.75;100.00;102058.66;5191702;28;20019;-78
2023/09/25 07:19:59;;;;;;;6.93;2.10;;;;;;;14.95;100.00;102078.63;5191258;28;20030;-79
2023/09/25 07:22:33;;;;;;;5.07;2.27;;;;;;;15.13;100.00;102078.50;5192367;28;20383;-80
2023/09/25 07:25:05;;;;;;;4.53;2.53;;;;;;;15.20;100.00;102084.25;5191522;28;20045;-79
2023/09/25 07:27:36;;;;;;;5.60;2.07;;;;;;;15.38;100.00;102082.28;5192579;28;20014;-80
2023/09/25 07:30:08;;;;;;;4.57;2.53;;;;;;;15.48;100.00;102070.22;5191191;28;20030;-79
2023/09/25 07:32:42;;;;;;;5.97;2.20;;;;;;;15.60;97.03;102070.41;5191606;28;20021;-79
2023/09/25 07:35:15;;;;;;;4.40;2.08;;;;;;;15.58;99.68;102054.66;5192145;28;20084;-78
2023/09/25 07:37:47;;;;;;;6.00;1.97;;;;;;;15.61;100.00;102032.50;5192575;28;20121;-78
2023/09/25 07:40:19;;;;;;;5.40;2.10;;;;;;;15.81;94.51;102054.16;5191829;28;20041;-80
2023/09/25 07:42:50;;;;;;;5.77;2.53;;;;;;;15.96;94.38;102045.25;5185763;28;20038;-79
2023/09/25 07:45:25;;;;;;;3.20;1.80;;;;;;;16.18;94.62;102080.91;5192040;28;20015;-80
2023/09/25 07:47:57;;;;;;;4.87;2.30;;;;;;;16.29;92.54;102061.72;5192853;28;20649;-79
2023/09/25 07:50:28;;;;;;;5.40;1.90;;;;;;;16.43;90.14;102047.59;5191449;28;20034;-79
2023/09/25 07:53:00;;;;;;;6.17;3.03;;;;;;;16.75;85.79;102067.56;5193019;28;20389;-79
2023/09/25 07:55:34;;;;;;;5.83;3.13;;;;;;;16.66;83.15;102029.34;5192080;28;20030;-79
2023/09/25 07:58:06;;;;;;;5.00;2.30;;;;;;;16.77;81.46;102043.66;5190961;28;20034;-81
2023/09/25 08:00:39;;;;;;;3.70;2.03;;;;;;;17.02;80.09;102053.41;5191476;28;20038;-78
2023/09/25 08:03:22;;;;;;;7.87;2.47;;;;;;;17.32;81.10;102072.63;5192042;28;20490;-80
2023/09/25 08:05:54;;;;;;;5.07;2.50;;;;;;;17.50;79.35;102082.88;5191659;28;20036;-81
2023/09/25 08:08:25;;;;;;;4.73;1.80;;;;;;;17.87;73.63;102080.25;5204449;28;20052;-81
2023/09/25 08:10:57;;;;;;;3.07;1.73;;;;;;;18.02;73.87;102066.88;5191446;28;20535;-80
2023/09/25 08:13:31;;;;;;;4.33;2.10;;;;;;;18.13;66.29;102037.78;5191436;28;20076;-79
2023/09/25 08:16:06;;;;;;;3.57;1.90;;;;;;;18.57;65.58;102060.31;5190656;28;20586;-80
2023/09/25 08:18:37;;;;;;;2.97;1.70;;;;;;;19.10;63.10;102083.72;5190330;28;20107;-78
2023/09/25 08:21:09;;;;;;;3.83;1.80;;;;;;;19.23;59.55;102088.13;5186241;28;20530;-77
2023/09/25 08:23:41;;;;;;;4.53;2.33;;;;;;;19.49;59.32;102040.06;5191494;28;20018;-78
2023/09/25 08:26:13;;;;;;;4.77;1.83;;;;;;;20.04;56.71;102065.84;5189224;28;20629;-80
2023/09/25 08:28:44;;;;;;;3.10;1.90;;;;;;;20.42;56.81;102062.84;5190077;28;20026;-77
2023/09/25 08:31:16;;;;;;;12.00;2.30;;;;;;;21.12;53.03;102074.81;5184232;28;20485;-76
2023/09/25 08:33:50;;;;;;;6.53;2.10;;;;;;;21.64;51.87;102057.91;5184385;28;20401;-76
2023/09/25 08:36:21;;;;;;;5.38;2.10;;;;;;;21.73;49.66;102065.09;5191189;28;20390;-77
2023/09/25 08:38:53;;;;;;;4.80;2.00;;;;;;;22.19;46.21;102029.09;5186914;28;20022;-78
2023/09/25 08:41:24;;;;;;;3.58;1.88;;;;;;;23.19;43.00;102046.66;5186892;28;20027;-77
2023/09/25 08:43:56;;;;;;;4.80;2.17;;;;;;;23.73;42.78;102056.69;5190294;28;20053;-77
2023/09/25 08:46:28;;;;;;;4.82;2.20;;;;;;;23.55;41.87;102013.84;5190037;28;20042;-77
2023/09/25 08:49:01;;;;;;;5.10;2.25;;;;;;;24.24;41.31;102020.56;5189023;28;20037;-78
2023/09/25 08:51:38;;;;;;;6.32;2.13;;;;;;;24.79;40.01;102010.56;5188751;28;20040;-77
2023/09/25 08:54:09;;;;;;;4.97;2.00;;;;;;;24.83;39.31;102057.47;5184271;28;20026;-78
2023/09/25 08:56:41;;;;;;;4.47;2.10;;;;;;;25.10;39.75;102002.03;5183889;28;20034;-77
2023/09/25 08:59:14;;;;;;;6.40;2.10;;;;;;;25.88;38.55;102049.41;5185498;28;20022;-78
2023/09/25 09:01:47;;;;;;;3.42;2.22;;;;;;;26.04;37.32;102059.31;5189693;28;20049;-78
2023/09/25 09:04:23;;;;;;;3.58;1.98;;;;;;;25.87;39.10;102054.94;5188346;28;20062;-78
2023/09/25 09:06:54;;;;;;;3.80;1.83;;;;;;;25.70;37.37;102057.56;5187122;28;20042;-80
2023/09/25 09:09:25;;;;;;;3.90;2.20;;;;;;;26.03;36.14;102038.84;5190362;28;20043;-80
2023/09/25 09:11:57;;;;;;;7.68;2.53;;;;;;;26.26;36.85;102048.94;5187162;28;20025;-80
2023/09/25 09:14:40;;;;;;;4.35;1.80;;;;;;;26.61;37.47;102015.69;5187581;28;20548;-79
2023/09/25 09:17:12;;;;;;;5.18;2.10;;;;;;;26.29;36.11;102018.22;5188436;28;20034;-80
2023/09/25 09:19:46;;;;;;;3.53;1.90;;;;;;;26.62;36.37;102061.19;5184384;28;20453;-78
2023/09/25 09:22:19;;;;;;;3.83;1.80;;;;;;;26.68;36.19;102028.28;5189130;28;20110;-78
2023/09/25 09:24:52;;;;;;;5.68;1.73;;;;;;;26.20;36.76;102055.81;5180519;28;20037;-79
2023/09/25 09:27:25;;;;;;;5.10;1.70;;;;;;;26.03;37.00;102036.16;5183922;28;20753;-80
2023/09/25 09:29:57;;;;;;;4.72;2.22;;;;;;;25.43;37.45;102013.91;5188443;28;20034;-82
2023/09/25 09:32:28;;;;;;;6.97;3.15;;;;;;;24.73;38.67;102000.50;5188021;28;20026;-78
2023/09/25 09:35:05;;;;;;;3.28;1.85;;;;;;;24.89;38.88;102005.94;5188144;28;20033;-79
2023/09/25 09:37:37;;;;;;;4.10;2.10;;;;;;;24.52;41.23;102017.78;5188637;28;20534;-80
2023/09/25 09:40:11;;;;;;;3.90;1.90;;;;;;;24.76;40.90;102059.09;5195923;28;20034;-78
2023/09/25 09:42:43;;;;;;;3.88;2.22;;;;;;;25.72;40.43;102063.63;5187781;28;20113;-76
2023/09/25 09:45:15;;;;;;;5.50;2.03;;;;;;;26.20;39.13;102044.22;5187093;28;20030;-77
2023/09/25 09:47:48;;;;;;;6.07;1.63;;;;;;;26.47;37.26;102044.91;5185613;28;20035;-78
2023/09/25 09:50:27;;;;;;;6.43;2.30;;;;;;;27.08;37.19;102059.78;5187183;28;20034;-79
2023/09/25 09:52:59;;;;;;;5.75;1.95;;;;;;;26.62;36.63;102036.19;5186564;28;20112;-77
2023/09/25 09:55:32;;;;;;;3.95;2.00;;;;;;;26.20;37.53;102050.44;5184578;28;20026;-77
2023/09/25 09:58:05;;;;;;;3.92;1.65;;;;;;;26.26;38.65;102040.88;5186362;28;20106;-77
2023/09/25 10:00:40;;;;;;;6.93;2.10;;;;;;;26.82;37.45;102053.59;5188304;28;20109;-78
2023/09/25 10:03:12;;;;;;;2.90;1.83;;;;;;;26.55;38.30;102063.72;5189018;28;20517;-77
2023/09/25 10:05:45;;;;;;;3.75;1.75;;;;;;;26.73;37.34;102046.56;5189784;28;20038;-77
2023/09/25 10:08:17;;;;;;;3.00;1.70;;;;;;;26.06;37.54;102027.78;5184073;28;20064;-76
2023/09/25 10:10:51;;;;;;;4.30;1.70;;;;;;;26.70;36.94;102071.94;5187833;28;20041;-77
2023/09/25 10:13:28;;;;;;;3.22;1.55;;;;;;;27.25;36.81;102070.44;5188121;28;20022;-78
2023/09/25 10:16:01;;;;;;;3.42;2.00;;;;;;;26.72;38.65;102036.84;5187316;28;20038;-80
2023/09/25 10:18:33;;;;;;;6.72;2.22;;;;;;;27.02;37.26;102041.63;5189245;28;20117;-78
2023/09/25 10:21:14;;;;;;;5.05;1.90;;;;;;;26.73;37.68;102043.03;5190068;28;20034;-78
2023/09/25 10:23:50;;;;;;;5.70;2.03;;;;;;;26.30;37.80;102020.75;5184932;28;20076;-78
2023/09/25 10:26:24;;;;;;;4.63;1.55;;;;;;;25.86;38.69;102040.69;5183716;28;20033;-78
2023/09/25 10:29:18;;;;;;;4.95;1.75;;;;;;;25.74;38.57;102056.25;5183603;28;20077;-78
2023/09/25 10:31:55;;;;;;;4.93;1.50;;;;;;;25.62;38.66;102048.47;5193475;28;20100;-77
2023/09/25 10:34:26;;;;;;;3.22;1.70;;;;;;;25.37;39.94;102045.72;5187121;28;20022;-78
2023/09/25 10:37:00;;;;;;;4.53;1.67;;;;;;;25.67;38.73;102025.72;5189035;28;20034;-78
2023/09/25 10:39:31;;;;;;;4.57;1.70;;;;;;;25.91;38.98;102056.28;5189136;28;20101;-78
2023/09/25 10:42:07;;;;;;;3.40;1.80;;;;;;;25.50;40.16;102063.22;5191266;28;20173;-78
2023/09/25 10:44:39;;;;;;;3.00;1.38;;;;;;;25.99;39.48;102061.66;5187946;28;20432;-78
2023/09/25 10:47:11;;;;;;;3.20;1.42;;;;;;;25.46;40.81;102038.56;5181713;28;20031;-78
2023/09/25 10:49:42;;;;;;;3.67;1.65;;;;;;;25.62;39.61;102031.56;5189666;28;20021;-78
2023/09/25 10:52:16;;;;;;;4.15;1.83;;;;;;;25.53;39.34;102027.16;5193481;28;20022;-79
2023/09/25 10:54:48;;;;;;;4.53;1.60;;;;;;;25.10;40.97;102028.84;5191888;28;20022;-78
2023/09/25 10:57:19;;;;;;;3.55;1.75;;;;;;;25.54;40.33;102053.81;5191490;28;20038;-78
2023/09/25 10:59:51;;;;;;;3.15;1.58;;;;;;;25.61;40.47;102030.72;5192040;28;20042;-78
2023/09/25 11:02:22;;;;;;;2.88;1.27;;;;;;;25.00;40.55;102036.16;5192096;28;20451;-78
2023/09/25 11:04:53;;;;;;;5.90;1.52;;;;;;;25.35;40.44;102034.31;5193025;28;20078;-78
2023/09/25 11:07:28;;;;;;;3.92;1.65;;;;;;;25.33;39.27;102048.88;5193051;28;20112;-78
2023/09/25 11:09:59;;;;;;;2.75;1.55;;;;;;;25.45;40.41;102054.81;5192366;28;20045;-78
2023/09/25 11:12:30;;;;;;;9.70;1.83;;;;;;;24.99;41.50;102067.50;5192453;28;20027;-77
2023/09/25 11:15:10;;;;;;;2.30;1.15;;;;;;;25.54;41.90;102051.13;5190093;28;20041;-77
2023/09/25 11:17:47;;;;;;;4.38;1.40;;;;;;;25.44;40.31;102053.97;5179019;28;20026;-78
2023/09/25 11:20:29;;;;;;;5.82;1.88;;;;;;;25.49;40.54;102066.88;5196740;28;20026;-79
2023/09/25 11:23:05;;;;;;;4.85;1.48;;;;;;;25.52;41.24;102063.84;5198383;28;20096;-79
2023/09/25 11:25:42;;;;;;;4.10;1.58;;;;;;;24.75;43.68;102058.25;5201935;28;20022;-79
2023/09/25 11:28:18;;;;;;;4.10;1.85;;;;;;;25.16;41.32;102064.91;5202064;28;20041;-79
2023/09/25 11:30:50;;;;;;;3.33;1.50;;;;;;;24.50;43.70;102055.44;5199250;28;20149;-79
2023/09/25 11:33:23;;;;;;;4.70;1.60;;;;;;;24.96;41.52;102049.03;5198193;28;20115;-78
2023/09/25 11:35:54;;;;;;;3.05;1.75;;;;;;;24.64;42.33;102054.03;5192808;28;20482;-77
2023/09/25 11:38:37;;;;;;;3.63;2.35;;;;;;;24.97;42.63;102056.09;5193177;28;20090;-78
2023/09/25 11:41:10;;;;;;;3.83;1.77;;;;;;;24.27;43.27;102057.72;5182610;28;20117;-79
2023/09/25 11:43:44;;;;;;;3.38;1.45;;;;;;;24.79;42.69;102058.78;5191938;28;20033;-78